AFR4223 LFLL-LFKJ
Flight info
| Callsign | AFR4223 |
|---|---|
| Flight time | 0h 48m |
| Altitude | 35000 |
| Route | ROMAM8S/17R ROMAM T43 BEPER DCT RETNO DCT KOLON DCT OMARD M623 VAREK |
| Aircraft | A320/M-SDE3FGHIRWY/LB1 |
Departure
| Time | 2026-05-01 12:51 |
|---|---|
| Airport | Lyon Saint-Exupéry Airport (LFLL) |
Arrival
| Time | 2026-05-01 13:39 |
|---|---|
| Airport | Ajaccio Napoléon Bonaparte airport (LFKJ) |
| Time | Latitude | Longitude | Altitude | Speed | Heading |
|---|---|---|---|---|---|
| 2026-05-01 12:24 | 45.72108 | 5.08178 | 797 ft | 0 kts | 304° |
| 2026-05-01 12:36 | 45.72100 | 5.08195 | 796 ft | 4 kts | 306° |
| 2026-05-01 12:37 | 45.72086 | 5.08225 | 796 ft | 2 kts | 299° |
| 2026-05-01 12:37 | 45.72074 | 5.08253 | 796 ft | 4 kts | 306° |
| 2026-05-01 12:37 | 45.72061 | 5.08268 | 797 ft | 2 kts | 16° |
| 2026-05-01 12:37 | 45.72047 | 5.08262 | 797 ft | 0 kts | 15° |
| 2026-05-01 12:40 | 45.72054 | 5.08265 | 797 ft | 6 kts | 17° |
| 2026-05-01 12:40 | 45.72094 | 5.08283 | 797 ft | 6 kts | 19° |
| 2026-05-01 12:40 | 45.72130 | 5.08301 | 798 ft | 7 kts | 18° |
| 2026-05-01 12:40 | 45.72196 | 5.08317 | 798 ft | 9 kts | 1° |
| 2026-05-01 12:41 | 45.72252 | 5.08341 | 798 ft | 8 kts | 39° |
| 2026-05-01 12:41 | 45.72271 | 5.08392 | 799 ft | 5 kts | 60° |
| 2026-05-01 12:41 | 45.72306 | 5.08418 | 799 ft | 5 kts | 6° |
| 2026-05-01 12:41 | 45.72355 | 5.08412 | 798 ft | 8 kts | 355° |
| 2026-05-01 12:42 | 45.72414 | 5.08406 | 797 ft | 8 kts | 355° |
| 2026-05-01 12:42 | 45.72487 | 5.08398 | 796 ft | 12 kts | 355° |
| 2026-05-01 12:42 | 45.72563 | 5.08387 | 796 ft | 10 kts | 355° |
| 2026-05-01 12:42 | 45.72642 | 5.08378 | 792 ft | 13 kts | 355° |
| 2026-05-01 12:43 | 45.72730 | 5.08367 | 791 ft | 12 kts | 355° |
| 2026-05-01 12:43 | 45.72810 | 5.08357 | 791 ft | 11 kts | 355° |
| 2026-05-01 12:43 | 45.72885 | 5.08349 | 790 ft | 10 kts | 356° |
| 2026-05-01 12:43 | 45.72956 | 5.08341 | 789 ft | 10 kts | 355° |
| 2026-05-01 12:44 | 45.73025 | 5.08331 | 787 ft | 10 kts | 355° |
| 2026-05-01 12:44 | 45.73097 | 5.08323 | 786 ft | 10 kts | 355° |
| 2026-05-01 12:44 | 45.73248 | 5.08304 | 784 ft | 13 kts | 355° |
| 2026-05-01 12:45 | 45.73426 | 5.08282 | 780 ft | 14 kts | 355° |
| 2026-05-01 12:45 | 45.73515 | 5.08271 | 780 ft | 12 kts | 355° |
| 2026-05-01 12:45 | 45.73591 | 5.08262 | 780 ft | 10 kts | 355° |
| 2026-05-01 12:46 | 45.73680 | 5.08251 | 778 ft | 15 kts | 355° |
| 2026-05-01 12:46 | 45.73781 | 5.08241 | 775 ft | 14 kts | 355° |
| 2026-05-01 12:46 | 45.73875 | 5.08227 | 776 ft | 12 kts | 355° |
| 2026-05-01 12:46 | 45.73956 | 5.08218 | 775 ft | 11 kts | 355° |
| 2026-05-01 12:47 | 45.74035 | 5.08220 | 773 ft | 12 kts | 10° |
| 2026-05-01 12:47 | 45.74115 | 5.08246 | 772 ft | 12 kts | 13° |
| 2026-05-01 12:47 | 45.74189 | 5.08270 | 772 ft | 10 kts | 13° |
| 2026-05-01 12:47 | 45.74253 | 5.08291 | 772 ft | 9 kts | 13° |
| 2026-05-01 12:48 | 45.74319 | 5.08327 | 771 ft | 11 kts | 36° |
| 2026-05-01 12:48 | 45.74358 | 5.08446 | 772 ft | 16 kts | 86° |
| 2026-05-01 12:48 | 45.74360 | 5.08483 | 772 ft | 0 kts | 86° |
| 2026-05-01 12:49 | 45.74361 | 5.08498 | 772 ft | 6 kts | 85° |
| 2026-05-01 12:49 | 45.74351 | 5.08592 | 772 ft | 9 kts | 116° |
| 2026-05-01 12:50 | 45.74309 | 5.08638 | 773 ft | 6 kts | 162° |
| 2026-05-01 12:50 | 45.74243 | 5.08647 | 774 ft | 25 kts | 175° |
| 2026-05-01 12:50 | 45.73802 | 5.08701 | 774 ft | 97 kts | 175° |
| 2026-05-01 12:50 | 45.72939 | 5.08807 | 793 ft | 149 kts | 175° |
| 2026-05-01 12:51 | 45.71800 | 5.08937 | 1025 ft | 173 kts | 175° |
| 2026-05-01 12:51 | 45.70591 | 5.09078 | 1742 ft | 175 kts | 175° |
| 2026-05-01 12:51 | 45.67975 | 5.09401 | 2604 ft | 210 kts | 176° |
| 2026-05-01 12:52 | 45.66442 | 5.09587 | 3132 ft | 229 kts | 176° |
| 2026-05-01 12:52 | 45.63209 | 5.09985 | 4798 ft | 239 kts | 176° |
| 2026-05-01 12:52 | 45.61512 | 5.10192 | 5394 ft | 254 kts | 175° |
| 2026-05-01 12:53 | 45.57883 | 5.10635 | 6990 ft | 267 kts | 175° |
| 2026-05-01 12:53 | 45.56024 | 5.10862 | 7837 ft | 270 kts | 175° |
| 2026-05-01 12:53 | 45.54130 | 5.11091 | 8616 ft | 275 kts | 175° |
| 2026-05-01 12:54 | 45.52206 | 5.11322 | 9442 ft | 280 kts | 175° |
| 2026-05-01 12:54 | 45.48240 | 5.11798 | 10742 ft | 300 kts | 175° |
| 2026-05-01 12:54 | 45.46079 | 5.12057 | 10969 ft | 324 kts | 175° |
| 2026-05-01 12:55 | 45.41299 | 5.12634 | 11611 ft | 357 kts | 175° |
| 2026-05-01 12:55 | 45.38804 | 5.12932 | 12279 ft | 361 kts | 175° |
| 2026-05-01 12:55 | 45.36293 | 5.13230 | 13015 ft | 364 kts | 175° |
| 2026-05-01 12:56 | 45.33768 | 5.13532 | 13805 ft | 365 kts | 175° |
| 2026-05-01 12:56 | 45.31246 | 5.13837 | 14418 ft | 369 kts | 174° |
| 2026-05-01 12:56 | 45.28684 | 5.14147 | 15048 ft | 371 kts | 174° |
| 2026-05-01 12:56 | 45.26087 | 5.14458 | 15609 ft | 376 kts | 174° |
| 2026-05-01 12:57 | 45.23476 | 5.14768 | 16221 ft | 378 kts | 174° |
| 2026-05-01 12:57 | 45.18197 | 5.15400 | 17400 ft | 383 kts | 174° |
| 2026-05-01 12:57 | 45.15593 | 5.16141 | 17966 ft | 384 kts | 160° |
| 2026-05-01 12:58 | 45.13244 | 5.17959 | 18546 ft | 387 kts | 143° |
| 2026-05-01 12:58 | 45.11184 | 5.20434 | 19038 ft | 390 kts | 140° |
| 2026-05-01 12:58 | 45.09160 | 5.22944 | 19516 ft | 393 kts | 140° |
| 2026-05-01 12:59 | 45.05034 | 5.28109 | 20423 ft | 399 kts | 140° |
| 2026-05-01 12:59 | 45.02945 | 5.30719 | 20872 ft | 402 kts | 140° |
| 2026-05-01 12:59 | 44.98717 | 5.35980 | 21766 ft | 408 kts | 139° |
| 2026-05-01 13:00 | 44.94402 | 5.41325 | 22516 ft | 416 kts | 140° |
| 2026-05-01 13:00 | 44.92216 | 5.44018 | 22918 ft | 419 kts | 140° |
| 2026-05-01 13:01 | 44.87791 | 5.49458 | 23725 ft | 425 kts | 140° |
| 2026-05-01 13:01 | 44.85586 | 5.52174 | 24046 ft | 428 kts | 140° |
| 2026-05-01 13:01 | 44.81056 | 5.57746 | 24650 ft | 434 kts | 140° |
| 2026-05-01 13:02 | 44.78771 | 5.60549 | 24966 ft | 437 kts | 140° |
| 2026-05-01 13:07 | 44.27835 | 6.22272 | 31415 ft | 469 kts | 140° |
| 2026-05-01 13:07 | 44.25359 | 6.25235 | 31733 ft | 469 kts | 140° |
| 2026-05-01 13:07 | 44.22878 | 6.28199 | 32009 ft | 469 kts | 140° |
| 2026-05-01 13:08 | 44.20399 | 6.31160 | 32314 ft | 470 kts | 140° |
| 2026-05-01 13:08 | 44.17915 | 6.34124 | 32563 ft | 470 kts | 140° |
| 2026-05-01 13:08 | 44.15431 | 6.37086 | 32878 ft | 470 kts | 140° |
| 2026-05-01 13:08 | 44.12944 | 6.40043 | 33211 ft | 469 kts | 140° |
| 2026-05-01 13:09 | 44.10494 | 6.42953 | 33538 ft | 469 kts | 140° |
| 2026-05-01 13:09 | 44.08012 | 6.45901 | 33847 ft | 469 kts | 140° |
| 2026-05-01 13:09 | 44.05533 | 6.48846 | 34141 ft | 469 kts | 139° |
| 2026-05-01 13:09 | 44.03048 | 6.51793 | 34399 ft | 470 kts | 140° |
| 2026-05-01 13:10 | 44.00557 | 6.54743 | 34652 ft | 470 kts | 140° |
| 2026-05-01 13:10 | 43.98070 | 6.57684 | 34903 ft | 470 kts | 140° |
| 2026-05-01 13:10 | 43.95579 | 6.60623 | 35163 ft | 470 kts | 140° |
| 2026-05-01 13:10 | 43.93083 | 6.63563 | 35277 ft | 471 kts | 140° |
| 2026-05-01 13:11 | 43.90571 | 6.66520 | 35299 ft | 473 kts | 140° |
| 2026-05-01 13:11 | 43.85542 | 6.72436 | 35303 ft | 475 kts | 140° |
| 2026-05-01 13:12 | 43.80502 | 6.78351 | 35307 ft | 475 kts | 140° |
| 2026-05-01 13:12 | 43.75483 | 6.84214 | 35318 ft | 475 kts | 140° |
| 2026-05-01 13:13 | 43.70419 | 6.90116 | 35316 ft | 476 kts | 139° |
| 2026-05-01 13:13 | 43.65356 | 6.96018 | 35318 ft | 476 kts | 139° |
| 2026-05-01 13:14 | 43.60290 | 7.01911 | 35321 ft | 476 kts | 140° |
| 2026-05-01 13:14 | 43.55245 | 7.07757 | 35317 ft | 477 kts | 140° |
| 2026-05-01 13:15 | 43.50161 | 7.13645 | 35316 ft | 477 kts | 140° |
| 2026-05-01 13:15 | 43.45064 | 7.19491 | 35327 ft | 477 kts | 140° |
| 2026-05-01 13:16 | 43.39968 | 7.25358 | 35327 ft | 478 kts | 140° |
| 2026-05-01 13:16 | 43.34900 | 7.31199 | 35320 ft | 479 kts | 140° |
| 2026-05-01 13:17 | 43.24662 | 7.42932 | 35319 ft | 479 kts | 140° |
| 2026-05-01 13:18 | 43.16971 | 7.51720 | 35319 ft | 479 kts | 140° |
| 2026-05-01 13:18 | 43.11774 | 7.57450 | 35313 ft | 479 kts | 147° |
| 2026-05-01 13:19 | 43.05850 | 7.61411 | 35301 ft | 478 kts | 161° |
| 2026-05-01 13:20 | 42.96453 | 7.66074 | 35069 ft | 480 kts | 161° |
| 2026-05-01 13:20 | 42.93310 | 7.67643 | 34822 ft | 481 kts | 161° |
| 2026-05-01 13:20 | 42.90155 | 7.69211 | 34577 ft | 481 kts | 161° |
| 2026-05-01 13:21 | 42.83816 | 7.72344 | 32898 ft | 491 kts | 161° |
| 2026-05-01 13:21 | 42.80639 | 7.73908 | 31899 ft | 494 kts | 161° |
| 2026-05-01 13:21 | 42.77398 | 7.75507 | 31025 ft | 495 kts | 161° |
| 2026-05-01 13:21 | 42.74144 | 7.77112 | 29883 ft | 499 kts | 161° |
| 2026-05-01 13:22 | 42.70866 | 7.78727 | 28707 ft | 502 kts | 160° |
| 2026-05-01 13:22 | 42.67582 | 7.80343 | 27263 ft | 500 kts | 160° |
| 2026-05-01 13:22 | 42.64325 | 7.81941 | 25883 ft | 494 kts | 159° |
| 2026-05-01 13:22 | 42.61130 | 7.83508 | 24640 ft | 483 kts | 159° |
| 2026-05-01 13:23 | 42.57995 | 7.85043 | 23404 ft | 474 kts | 158° |
| 2026-05-01 13:23 | 42.54941 | 7.86533 | 22492 ft | 457 kts | 158° |
| 2026-05-01 13:23 | 42.52012 | 7.87958 | 21677 ft | 439 kts | 158° |
| 2026-05-01 13:23 | 42.49161 | 7.89347 | 20880 ft | 433 kts | 156° |
| 2026-05-01 13:24 | 42.46351 | 7.90718 | 20176 ft | 421 kts | 156° |
| 2026-05-01 13:24 | 42.43671 | 7.92018 | 19742 ft | 399 kts | 158° |
| 2026-05-01 13:24 | 42.41100 | 7.93265 | 19046 ft | 387 kts | 157° |
| 2026-05-01 13:25 | 42.36112 | 7.95703 | 17324 ft | 376 kts | 156° |
| 2026-05-01 13:25 | 42.33727 | 7.97097 | 16634 ft | 371 kts | 147° |
| 2026-05-01 13:25 | 42.31561 | 7.98888 | 16053 ft | 370 kts | 140° |
| 2026-05-01 13:25 | 42.29546 | 8.01111 | 15463 ft | 368 kts | 133° |
| 2026-05-01 13:26 | 42.27804 | 8.03629 | 14925 ft | 365 kts | 127° |
| 2026-05-01 13:26 | 42.26201 | 8.06181 | 14627 ft | 358 kts | 125° |
| 2026-05-01 13:26 | 42.24579 | 8.08756 | 14254 ft | 355 kts | 126° |
| 2026-05-01 13:26 | 42.22999 | 8.11258 | 13806 ft | 354 kts | 126° |
| 2026-05-01 13:27 | 42.21404 | 8.13774 | 13334 ft | 352 kts | 126° |
| 2026-05-01 13:27 | 42.19816 | 8.16280 | 12866 ft | 351 kts | 127° |
| 2026-05-01 13:27 | 42.16659 | 8.21262 | 11929 ft | 345 kts | 127° |
| 2026-05-01 13:28 | 42.13575 | 8.26126 | 11069 ft | 332 kts | 127° |
| 2026-05-01 13:28 | 42.12106 | 8.28434 | 10647 ft | 317 kts | 127° |
| 2026-05-01 13:29 | 42.09322 | 8.32820 | 9828 ft | 305 kts | 127° |
| 2026-05-01 13:29 | 42.06587 | 8.37134 | 8947 ft | 302 kts | 127° |
| 2026-05-01 13:30 | 42.01236 | 8.45529 | 7250 ft | 278 kts | 127° |
| 2026-05-01 13:31 | 41.98809 | 8.49317 | 6424 ft | 257 kts | 128° |
| 2026-05-01 13:31 | 41.95255 | 8.54218 | 5148 ft | 235 kts | 134° |
| 2026-05-01 13:32 | 41.92942 | 8.57222 | 4278 ft | 229 kts | 135° |
| 2026-05-01 13:33 | 41.89985 | 8.61133 | 3242 ft | 221 kts | 126° |
| 2026-05-01 13:33 | 41.89210 | 8.64818 | 3018 ft | 185 kts | 96° |
| 2026-05-01 13:34 | 41.88899 | 8.67988 | 3010 ft | 159 kts | 96° |
| 2026-05-01 13:34 | 41.88920 | 8.70832 | 3015 ft | 151 kts | 57° |
| 2026-05-01 13:35 | 41.90317 | 8.72872 | 3006 ft | 149 kts | 34° |
| 2026-05-01 13:35 | 41.91205 | 8.73581 | 3009 ft | 148 kts | 27° |
| 2026-05-01 13:35 | 41.93054 | 8.74817 | 3011 ft | 148 kts | 25° |
| 2026-05-01 13:36 | 41.93981 | 8.75426 | 2997 ft | 149 kts | 25° |
| 2026-05-01 13:36 | 41.94917 | 8.76039 | 2786 ft | 149 kts | 25° |
| 2026-05-01 13:36 | 41.96795 | 8.77288 | 2386 ft | 153 kts | 26° |
| 2026-05-01 13:37 | 41.97656 | 8.78097 | 2272 ft | 152 kts | 45° |
| 2026-05-01 13:37 | 41.98249 | 8.79271 | 2142 ft | 153 kts | 70° |
| 2026-05-01 13:37 | 41.98371 | 8.80667 | 2026 ft | 151 kts | 101° |
| 2026-05-01 13:37 | 41.97939 | 8.81903 | 1828 ft | 147 kts | 135° |
| 2026-05-01 13:38 | 41.96098 | 8.82533 | 1090 ft | 150 kts | 197° |
| 2026-05-01 13:38 | 41.95090 | 8.81961 | 670 ft | 156 kts | 211° |
| 2026-05-01 13:38 | 41.94149 | 8.81320 | 368 ft | 146 kts | 206° |
| 2026-05-01 13:39 | 41.93253 | 8.80796 | 151 ft | 136 kts | 207° |
| 2026-05-01 13:39 | 41.92435 | 8.80275 | 24 ft | 121 kts | 208° |
| 2026-05-01 13:39 | 41.91904 | 8.79945 | 18 ft | 43 kts | 204° |
| 2026-05-01 13:39 | 41.91710 | 8.79821 | 16 ft | 29 kts | 205° |
| 2026-05-01 13:40 | 41.91529 | 8.79710 | 17 ft | 29 kts | 205° |
| 2026-05-01 13:40 | 41.91357 | 8.79601 | 21 ft | 25 kts | 205° |
| 2026-05-01 13:40 | 41.91247 | 8.79511 | 23 ft | 14 kts | 237° |
| 2026-05-01 13:40 | 41.91279 | 8.79406 | 22 ft | 14 kts | 334° |
| 2026-05-01 13:41 | 41.91335 | 8.79371 | 25 ft | 1 kts | 333° |
| 2026-05-01 13:41 | 41.91364 | 8.79352 | 30 ft | 9 kts | 335° |
| 2026-05-01 13:41 | 41.91429 | 8.79332 | 28 ft | 11 kts | 359° |
| 2026-05-01 13:41 | 41.91498 | 8.79358 | 27 ft | 10 kts | 23° |
| 2026-05-01 13:42 | 41.91560 | 8.79394 | 29 ft | 9 kts | 24° |
| 2026-05-01 13:42 | 41.91617 | 8.79431 | 27 ft | 9 kts | 25° |
| 2026-05-01 13:42 | 41.91671 | 8.79464 | 29 ft | 8 kts | 25° |
| 2026-05-01 13:42 | 41.91723 | 8.79497 | 30 ft | 8 kts | 25° |
| 2026-05-01 13:43 | 41.91775 | 8.79530 | 30 ft | 8 kts | 25° |
| 2026-05-01 13:43 | 41.91805 | 8.79537 | 27 ft | 4 kts | 346° |
| 2026-05-01 13:43 | 41.91827 | 8.79516 | 29 ft | 4 kts | 325° |
| 2026-05-01 13:43 | 41.91852 | 8.79504 | 30 ft | 0 kts | 345° |